createdAt,value
2023-04-07T00:01:39.347Z,6.80
2023-04-07T00:04:06.014Z,6.87
2023-04-07T00:06:32.854Z,7.27
2023-04-07T00:08:59.368Z,8.27
2023-04-07T00:11:25.993Z,7.30
2023-04-07T00:13:52.720Z,7.67
2023-04-07T00:16:19.638Z,7.30
2023-04-07T00:18:46.207Z,9.50
2023-04-07T00:21:12.690Z,8.70
2023-04-07T00:23:39.142Z,7.87
2023-04-07T00:26:05.973Z,7.07
2023-04-07T00:28:32.414Z,7.97
2023-04-07T00:30:58.995Z,6.77
2023-04-07T00:33:26.001Z,8.90
2023-04-07T00:35:54.336Z,8.40
2023-04-07T00:38:20.900Z,9.87
2023-04-07T00:40:47.347Z,6.87
2023-04-07T00:43:13.781Z,8.37
2023-04-07T00:45:40.295Z,9.50
2023-04-07T00:48:07.346Z,7.60
2023-04-07T00:50:33.861Z,7.60
2023-04-07T00:53:02.176Z,7.40
2023-04-07T00:55:28.986Z,8.73
2023-04-07T00:57:55.569Z,8.57
2023-04-07T01:00:22.044Z,9.73
2023-04-07T01:02:59.897Z,6.90
2023-04-07T01:05:46.750Z,7.77
2023-04-07T01:08:20.962Z,9.53
2023-04-07T01:11:05.997Z,8.70
2023-04-07T01:13:41.284Z,8.37
2023-04-07T01:16:30.397Z,9.97
2023-04-07T01:19:04.560Z,8.83
2023-04-07T01:21:34.143Z,7.00
2023-04-07T01:24:30.072Z,9.37
2023-04-07T01:27:10.560Z,8.90
2023-04-07T01:29:47.725Z,9.13
2023-04-07T01:32:15.946Z,8.37
2023-04-07T01:34:43.593Z,9.67
2023-04-07T01:37:11.657Z,10.37
2023-04-07T01:39:39.265Z,10.10
2023-04-07T01:42:07.359Z,10.77
2023-04-07T01:44:35.556Z,10.23
2023-04-07T01:47:03.299Z,9.60
2023-04-07T01:49:32.015Z,10.17
2023-04-07T01:51:59.909Z,8.90
2023-04-07T01:54:27.283Z,10.03
2023-04-07T01:56:53.849Z,10.57
2023-04-07T01:59:21.579Z,8.23
2023-04-07T02:01:48.991Z,9.50
2023-04-07T02:04:32.355Z,9.20
2023-04-07T02:07:04.045Z,8.60
2023-04-07T02:09:39.484Z,7.60
2023-04-07T02:12:09.175Z,8.37
2023-04-07T02:14:40.999Z,8.77
2023-04-07T02:17:10.592Z,9.90
2023-04-07T02:19:38.072Z,8.83
2023-04-07T02:22:06.310Z,9.53
2023-04-07T02:24:32.876Z,9.60
2023-04-07T02:27:01.973Z,10.17
2023-04-07T02:29:28.579Z,12.23
2023-04-07T02:31:56.277Z,11.07
2023-04-07T02:34:22.754Z,11.60
2023-04-07T02:36:49.301Z,12.20
2023-04-07T02:39:15.960Z,13.10
2023-04-07T02:41:42.433Z,9.87
2023-04-07T02:44:08.911Z,10.10
2023-04-07T02:46:35.919Z,11.40
2023-04-07T02:49:02.816Z,9.13
2023-04-07T02:51:29.268Z,8.23
2023-04-07T02:53:56.142Z,9.53
2023-04-07T02:56:22.810Z,10.67
2023-04-07T02:58:49.325Z,8.20
2023-04-07T03:01:17.225Z,8.77
2023-04-07T03:03:44.916Z,12.17
2023-04-07T03:06:15.956Z,9.40
2023-04-07T03:09:06.604Z,10.00
2023-04-07T03:11:33.348Z,11.40
2023-04-07T03:14:00.638Z,11.93
2023-04-07T03:16:29.439Z,11.60
2023-04-07T03:19:16.436Z,9.90
2023-04-07T03:21:46.479Z,10.83
2023-04-07T03:24:13.008Z,10.53
2023-04-07T03:26:39.524Z,12.60
2023-04-07T03:29:13.890Z,12.43
2023-04-07T03:31:42.108Z,9.97
2023-04-07T03:34:08.672Z,10.63
2023-04-07T03:36:35.174Z,9.13
2023-04-07T03:39:04.470Z,9.20
2023-04-07T03:41:31.467Z,10.87
2023-04-07T03:43:58.003Z,11.47
2023-04-07T03:46:26.856Z,9.23
2023-04-07T03:48:54.030Z,9.83
2023-04-07T03:51:22.105Z,9.17
2023-04-07T03:53:53.535Z,8.90
2023-04-07T03:56:38.309Z,10.23
2023-04-07T03:59:05.687Z,9.83
2023-04-07T04:01:36.810Z,10.87
2023-04-07T04:04:10.826Z,12.13
2023-04-07T04:06:37.707Z,10.27
2023-04-07T04:09:13.871Z,11.90
2023-04-07T04:11:45.005Z,10.37
2023-04-07T04:14:12.321Z,11.30
2023-04-07T04:16:39.556Z,10.93
2023-04-07T04:19:16.351Z,11.77
2023-04-07T04:21:42.970Z,10.67
2023-04-07T04:24:10.092Z,12.00
2023-04-07T04:26:37.142Z,11.23
2023-04-07T04:29:09.818Z,12.03
2023-04-07T04:31:36.339Z,10.77
2023-04-07T04:34:03.808Z,11.00
2023-04-07T04:36:31.461Z,11.30
2023-04-07T04:39:03.207Z,11.80
2023-04-07T04:41:29.876Z,14.63
2023-04-07T04:43:57.473Z,13.37
2023-04-07T04:46:26.262Z,16.77
2023-04-07T04:48:54.195Z,13.37
2023-04-07T04:51:22.422Z,16.00
2023-04-07T04:53:54.631Z,12.70
2023-04-07T04:56:23.195Z,14.70
2023-04-07T04:58:50.824Z,15.03
2023-04-07T05:01:32.803Z,12.20
2023-04-07T05:04:09.218Z,12.83
2023-04-07T05:06:37.037Z,12.03
2023-04-07T05:09:08.599Z,13.93
2023-04-07T05:11:42.274Z,13.53
2023-04-07T05:14:09.382Z,12.30
2023-04-07T05:16:39.574Z,13.00
2023-04-07T05:19:06.969Z,10.83
2023-04-07T05:21:33.526Z,11.77
2023-04-07T05:24:03.361Z,13.23
2023-04-07T05:26:32.136Z,13.77
2023-04-07T05:29:00.187Z,13.43
2023-04-07T05:31:26.732Z,12.47
2023-04-07T05:33:56.671Z,12.87
2023-04-07T05:36:27.658Z,13.13
2023-04-07T05:38:56.440Z,14.10
2023-04-07T05:41:23.629Z,11.23
2023-04-07T05:43:50.338Z,10.10
2023-04-07T05:46:17.744Z,12.83
2023-04-07T05:48:52.442Z,10.50
2023-04-07T05:51:20.313Z,14.37
2023-04-07T05:53:46.777Z,13.00
2023-04-07T05:56:13.256Z,13.07
2023-04-07T05:58:45.434Z,13.40
2023-04-07T06:01:13.584Z,12.20
2023-04-07T06:03:41.236Z,13.10
2023-04-07T06:06:15.468Z,14.27
2023-04-07T06:08:42.066Z,13.20
2023-04-07T06:11:20.790Z,12.87
2023-04-07T06:13:47.881Z,13.50
2023-04-07T06:16:15.197Z,13.03
2023-04-07T06:18:42.384Z,14.47
2023-04-07T06:21:09.212Z,11.70
2023-04-07T06:23:35.805Z,12.80
2023-04-07T06:26:06.212Z,15.53
2023-04-07T06:28:32.720Z,13.90
2023-04-07T06:30:59.784Z,14.50
2023-04-07T06:33:28.375Z,11.17
2023-04-07T06:35:56.466Z,14.03
2023-04-07T06:38:23.212Z,10.77
2023-04-07T06:40:49.799Z,11.23
2023-04-07T06:43:16.239Z,12.77
2023-04-07T06:46:03.147Z,11.93
2023-04-07T06:48:29.566Z,14.67
2023-04-07T06:50:56.038Z,13.33
2023-04-07T06:53:22.561Z,13.17
2023-04-07T06:55:49.022Z,11.83
2023-04-07T06:58:15.649Z,13.97
2023-04-07T07:00:42.112Z,12.93
2023-04-07T07:03:08.747Z,15.20
2023-04-07T07:05:35.526Z,13.90
2023-04-07T07:08:02.003Z,16.03
2023-04-07T07:10:28.522Z,11.80
2023-04-07T07:12:55.196Z,14.63
2023-04-07T07:15:21.652Z,13.50
2023-04-07T07:17:48.212Z,12.43
2023-04-07T07:20:14.780Z,13.37
2023-04-07T07:22:41.496Z,13.73
2023-04-07T07:25:08.115Z,15.43
2023-04-07T07:27:34.940Z,11.93
2023-04-07T07:30:01.551Z,11.73
2023-04-07T07:32:28.055Z,14.50
2023-04-07T07:34:54.499Z,17.70
2023-04-07T07:37:21.030Z,16.90
2023-04-07T07:39:47.523Z,16.80
2023-04-07T07:42:15.298Z,14.43
2023-04-07T07:44:41.775Z,15.60
2023-04-07T07:47:08.234Z,14.00
2023-04-07T07:49:35.203Z,14.33
2023-04-07T07:52:02.530Z,14.07
2023-04-07T07:54:28.972Z,14.20
2023-04-07T07:56:55.675Z,13.20
2023-04-07T07:59:22.145Z,14.53
2023-04-07T08:01:48.746Z,14.60
2023-04-07T08:04:15.606Z,13.37
2023-04-07T08:06:42.819Z,12.90
2023-04-07T08:09:09.292Z,10.30
2023-04-07T08:11:35.775Z,10.43
2023-04-07T08:14:02.275Z,11.73
2023-04-07T08:16:28.826Z,13.60
2023-04-07T08:18:55.423Z,11.67
2023-04-07T08:21:21.899Z,14.23
2023-04-07T08:23:48.591Z,12.57
2023-04-07T08:26:15.376Z,14.20
2023-04-07T08:28:41.829Z,12.73
2023-04-07T08:31:08.375Z,13.33
2023-04-07T08:33:34.921Z,15.63
2023-04-07T08:36:01.493Z,14.57
2023-04-07T08:38:28.055Z,12.83
2023-04-07T08:41:03.338Z,12.90
2023-04-07T08:43:30.372Z,17.67
2023-04-07T08:45:57.948Z,12.00
2023-04-07T08:48:27.076Z,12.77
2023-04-07T08:50:54.616Z,11.43
2023-04-07T08:53:28.143Z,11.43
2023-04-07T08:55:56.512Z,11.40
2023-04-07T08:58:23.798Z,11.50
2023-04-07T09:00:50.931Z,13.23
2023-04-07T09:03:18.042Z,12.60
2023-04-07T09:05:46.405Z,12.23
2023-04-07T09:08:13.013Z,13.30
2023-04-07T09:10:39.524Z,13.57
2023-04-07T09:13:06.325Z,14.77
2023-04-07T09:15:33.046Z,14.10
2023-04-07T09:17:59.651Z,17.13
2023-04-07T09:20:26.215Z,15.47
2023-04-07T09:22:52.744Z,21.30
2023-04-07T09:25:26.117Z,16.40
2023-04-07T09:28:00.129Z,13.70
2023-04-07T09:30:27.672Z,12.33
2023-04-07T09:32:54.446Z,11.60
2023-04-07T09:35:23.148Z,11.50
2023-04-07T09:38:06.421Z,10.47
2023-04-07T09:40:33.632Z,11.53
2023-04-07T09:43:00.577Z,12.10
2023-04-07T09:45:34.471Z,11.47
2023-04-07T09:48:18.107Z,9.43
2023-04-07T09:50:49.281Z,9.60
2023-04-07T09:53:17.026Z,13.20
2023-04-07T09:55:44.122Z,8.83
2023-04-07T09:58:17.086Z,13.77
2023-04-07T10:00:44.223Z,10.50
2023-04-07T10:03:11.131Z,10.40
2023-04-07T10:05:38.840Z,11.30
2023-04-07T10:08:06.745Z,10.00
2023-04-07T10:10:35.028Z,9.53
2023-04-07T10:13:04.980Z,8.70
2023-04-07T10:15:31.671Z,9.87
2023-04-07T10:17:59.684Z,11.03
2023-04-07T10:20:28.686Z,9.90
2023-04-07T10:22:57.609Z,9.13
2023-04-07T10:25:25.654Z,7.33
2023-04-07T10:27:59.129Z,5.27
2023-04-07T10:30:28.893Z,6.97
2023-04-07T10:32:56.327Z,7.20
2023-04-07T10:35:23.610Z,7.10
2023-04-07T10:38:08.656Z,7.03
2023-04-07T10:40:36.810Z,8.50
2023-04-07T10:43:04.768Z,8.93
2023-04-07T10:45:49.530Z,8.07
2023-04-07T10:48:18.000Z,9.57
2023-04-07T10:51:08.400Z,9.67
2023-04-07T10:53:34.956Z,10.57
2023-04-07T10:56:01.662Z,7.27
2023-04-07T10:58:29.125Z,7.37
2023-04-07T11:00:58.752Z,8.90
2023-04-07T11:03:25.906Z,11.03
2023-04-07T11:05:52.531Z,11.53
2023-04-07T11:08:46.739Z,10.37
2023-04-07T11:11:16.469Z,7.83
2023-04-07T11:13:44.130Z,7.53
2023-04-07T11:16:11.320Z,9.83
2023-04-07T11:18:38.884Z,10.40
2023-04-07T11:21:06.794Z,8.97
2023-04-07T11:23:43.911Z,7.33
2023-04-07T11:26:12.746Z,7.83
2023-04-07T11:28:51.644Z,8.67
2023-04-07T11:31:31.946Z,10.23
2023-04-07T11:33:59.921Z,7.77
2023-04-07T11:36:31.062Z,7.10
2023-04-07T11:38:58.286Z,7.73
2023-04-07T11:41:27.222Z,8.17
2023-04-07T11:44:05.591Z,8.37
2023-04-07T11:46:32.317Z,8.07
2023-04-07T11:49:09.815Z,8.40
2023-04-07T11:51:36.315Z,7.80
2023-04-07T11:54:02.942Z,7.13
2023-04-07T11:56:30.445Z,7.47
2023-04-07T11:58:57.242Z,9.60
2023-04-07T12:01:27.072Z,6.30
2023-04-07T12:04:02.563Z,5.17
2023-04-07T12:06:41.848Z,6.23
2023-04-07T12:09:09.733Z,3.00
2023-04-07T12:11:39.043Z,3.13
2023-04-07T12:14:06.601Z,2.40
2023-04-07T12:16:38.362Z,2.63
2023-04-07T12:19:04.829Z,2.03
2023-04-07T12:21:31.613Z,2.43
2023-04-07T12:23:58.043Z,1.80
2023-04-07T12:26:25.454Z,1.77
2023-04-07T12:28:51.959Z,2.77
2023-04-07T12:31:18.501Z,1.27
2023-04-07T12:33:45.292Z,1.50
2023-04-07T12:36:11.948Z,1.40
2023-04-07T12:38:38.447Z,2.37
2023-04-07T12:41:04.953Z,1.80
2023-04-07T12:43:31.702Z,2.20
2023-04-07T12:45:58.404Z,0.97
2023-04-07T12:48:26.642Z,2.03
2023-04-07T12:50:53.321Z,1.00
2023-04-07T12:53:19.866Z,1.20
2023-04-07T12:55:50.111Z,1.60
2023-04-07T12:58:20.530Z,1.53
2023-04-07T13:00:49.503Z,1.20
2023-04-07T13:03:16.200Z,1.00
2023-04-07T13:05:42.804Z,0.73
2023-04-07T13:08:09.692Z,1.60
2023-04-07T13:10:36.246Z,1.00
2023-04-07T13:13:02.766Z,0.90
2023-04-07T13:15:29.260Z,0.70
2023-04-07T13:17:55.965Z,0.80
2023-04-07T13:20:22.712Z,0.70
2023-04-07T13:22:55.649Z,0.80
2023-04-07T13:25:32.404Z,0.90
2023-04-07T13:27:59.727Z,1.43
2023-04-07T13:30:26.290Z,1.63
2023-04-07T13:32:53.189Z,1.47
2023-04-07T13:35:19.759Z,1.60
2023-04-07T13:37:46.192Z,1.97
2023-04-07T13:40:13.052Z,1.60
2023-04-07T13:42:39.910Z,2.60
2023-04-07T13:45:07.121Z,3.10
2023-04-07T13:47:34.590Z,2.83
2023-04-07T13:50:01.676Z,3.47
2023-04-07T13:52:28.677Z,3.53
2023-04-07T13:54:55.386Z,3.33
2023-04-07T13:57:22.098Z,3.97
2023-04-07T13:59:51.971Z,3.87
2023-04-07T14:02:19.859Z,3.40
2023-04-07T14:04:46.880Z,4.20
2023-04-07T14:07:13.467Z,2.90
2023-04-07T14:09:40.180Z,3.20
2023-04-07T14:12:06.921Z,3.33
2023-04-07T14:14:33.602Z,2.87
2023-04-07T14:17:00.186Z,3.40
2023-04-07T14:19:26.712Z,3.17
2023-04-07T14:21:53.534Z,3.17
2023-04-07T14:24:20.005Z,3.80
2023-04-07T14:26:46.689Z,3.77
2023-04-07T14:29:13.894Z,3.97
2023-04-07T14:31:40.625Z,4.60
2023-04-07T14:34:09.744Z,4.67
2023-04-07T14:36:36.229Z,4.47
2023-04-07T14:39:03.725Z,4.13
2023-04-07T14:41:30.225Z,5.70
2023-04-07T14:43:56.817Z,4.93
2023-04-07T14:46:23.923Z,4.57
2023-04-07T14:48:54.304Z,4.97
2023-04-07T14:51:21.445Z,5.20
2023-04-07T14:53:49.538Z,4.37
2023-04-07T14:56:16.071Z,5.00
2023-04-07T14:58:42.530Z,4.40
2023-04-07T15:01:09.041Z,4.43
2023-04-07T15:03:35.757Z,4.00
2023-04-07T15:06:07.262Z,3.50
2023-04-07T15:08:33.780Z,2.63
2023-04-07T15:11:00.261Z,2.70
2023-04-07T15:13:26.773Z,2.83
2023-04-07T15:15:53.232Z,1.80
2023-04-07T15:18:19.850Z,2.50
2023-04-07T15:20:46.348Z,3.37
2023-04-07T15:23:14.684Z,2.97
2023-04-07T15:25:41.114Z,3.17
2023-04-07T15:28:07.566Z,5.00
2023-04-07T15:30:35.883Z,3.70
2023-04-07T15:33:04.388Z,5.10
2023-04-07T15:35:31.325Z,4.93
2023-04-07T15:37:57.814Z,6.30
2023-04-07T15:40:24.280Z,5.03
2023-04-07T15:42:50.756Z,4.57
2023-04-07T15:45:17.278Z,4.73
2023-04-07T15:47:43.767Z,4.93
2023-04-07T15:50:10.685Z,6.83
2023-04-07T15:52:37.450Z,6.23
2023-04-07T15:55:04.137Z,4.70
2023-04-07T15:57:30.828Z,5.03
2023-04-07T15:59:57.258Z,5.43
2023-04-07T16:02:23.847Z,4.80
2023-04-07T16:04:50.455Z,4.63
2023-04-07T16:07:16.909Z,4.37
2023-04-07T16:09:43.350Z,5.60
2023-04-07T16:12:09.781Z,5.83
2023-04-07T16:14:36.449Z,5.93
2023-04-07T16:17:03.043Z,7.47
2023-04-07T16:19:29.532Z,8.07
2023-04-07T16:21:56.067Z,4.63
2023-04-07T16:24:22.817Z,5.37
2023-04-07T16:26:51.303Z,5.53
2023-04-07T16:29:18.957Z,8.20
2023-04-07T16:31:45.946Z,5.77
2023-04-07T16:34:12.671Z,7.07
2023-04-07T16:36:39.560Z,5.00
2023-04-07T16:39:06.429Z,5.43
2023-04-07T16:41:32.920Z,4.57
2023-04-07T16:43:59.369Z,3.63
2023-04-07T16:46:29.934Z,4.10
2023-04-07T16:48:56.527Z,5.93
2023-04-07T16:51:24.726Z,4.40
2023-04-07T16:53:51.301Z,6.60
2023-04-07T16:56:22.981Z,5.40
2023-04-07T16:58:50.178Z,4.80
2023-04-07T17:01:18.403Z,4.40
2023-04-07T17:03:48.163Z,4.53
2023-04-07T17:06:16.467Z,5.93
2023-04-07T17:08:43.905Z,4.60
2023-04-07T17:11:13.289Z,5.30
2023-04-07T17:13:40.405Z,7.27
2023-04-07T17:16:07.130Z,7.27
2023-04-07T17:18:33.862Z,8.10
2023-04-07T17:21:00.674Z,7.77
2023-04-07T17:23:28.294Z,7.40
2023-04-07T17:25:54.963Z,6.90
2023-04-07T17:28:21.505Z,8.80
2023-04-07T17:30:48.096Z,8.80
2023-04-07T17:33:14.570Z,7.90
2023-04-07T17:35:41.109Z,6.67
2023-04-07T17:38:07.607Z,8.67
2023-04-07T17:40:34.159Z,7.73
2023-04-07T17:43:00.611Z,8.90
2023-04-07T17:45:27.231Z,7.73
2023-04-07T17:47:54.777Z,9.33
2023-04-07T17:50:21.272Z,9.10
2023-04-07T17:52:47.724Z,8.73
2023-04-07T17:55:14.227Z,10.60
2023-04-07T17:57:41.783Z,9.63
2023-04-07T18:00:09.003Z,10.77
2023-04-07T18:02:41.730Z,8.80
2023-04-07T18:05:09.660Z,9.30
2023-04-07T18:07:36.217Z,8.77
2023-04-07T18:10:03.353Z,8.93
2023-04-07T18:12:31.812Z,11.37
2023-04-07T18:14:58.335Z,9.77
2023-04-07T18:17:24.856Z,9.50
2023-04-07T18:19:51.499Z,9.07
2023-04-07T18:22:18.002Z,8.37
2023-04-07T18:24:44.546Z,8.77
2023-04-07T18:27:11.273Z,9.10
2023-04-07T18:29:37.717Z,7.03
2023-04-07T18:32:04.215Z,9.57
2023-04-07T18:34:30.811Z,8.20
2023-04-07T18:36:57.259Z,11.27
2023-04-07T18:39:27.790Z,12.23
2023-04-07T18:41:55.415Z,11.03
2023-04-07T18:44:21.847Z,11.27
2023-04-07T18:46:48.369Z,12.13
2023-04-07T18:49:14.991Z,10.90
2023-04-07T18:51:44.471Z,9.90
2023-04-07T18:54:11.084Z,11.20
2023-04-07T18:56:37.656Z,13.33
2023-04-07T18:59:04.298Z,14.07
2023-04-07T19:01:31.293Z,16.50
2023-04-07T19:03:57.963Z,12.70
2023-04-07T19:06:24.561Z,16.63
2023-04-07T19:08:52.291Z,20.87
2023-04-07T19:11:18.899Z,20.57
2023-04-07T19:13:45.418Z,22.33
2023-04-07T19:16:11.960Z,21.13
2023-04-07T19:18:38.552Z,18.50
2023-04-07T19:21:05.044Z,21.07
2023-04-07T19:23:32.474Z,18.50
2023-04-07T19:26:00.732Z,12.60
2023-04-07T19:28:27.913Z,15.83
2023-04-07T19:30:54.452Z,14.43
2023-04-07T19:33:21.022Z,14.13
2023-04-07T19:35:47.562Z,12.17
2023-04-07T19:38:14.043Z,15.17
2023-04-07T19:40:40.491Z,12.63
2023-04-07T19:43:07.301Z,13.53
2023-04-07T19:45:33.844Z,12.57
2023-04-07T19:48:00.463Z,14.10
2023-04-07T19:50:28.234Z,15.47
2023-04-07T19:52:54.696Z,12.37
2023-04-07T19:55:21.253Z,12.73
2023-04-07T19:57:48.616Z,12.33
2023-04-07T20:00:15.914Z,11.47
2023-04-07T20:02:48.926Z,12.30
2023-04-07T20:05:15.927Z,12.70
2023-04-07T20:07:42.534Z,14.23
2023-04-07T20:10:09.055Z,13.43
2023-04-07T20:12:35.571Z,14.00
2023-04-07T20:15:04.312Z,13.17
2023-04-07T20:17:32.515Z,11.67
2023-04-07T20:19:59.569Z,15.10
2023-04-07T20:22:26.201Z,13.47
2023-04-07T20:24:52.668Z,12.97
2023-04-07T20:27:19.123Z,11.87
2023-04-07T20:29:45.609Z,12.53
2023-04-07T20:32:12.224Z,12.43
2023-04-07T20:34:38.702Z,12.83
2023-04-07T20:37:05.279Z,11.60
2023-04-07T20:39:31.714Z,12.70
2023-04-07T20:41:58.258Z,11.67
2023-04-07T20:44:24.793Z,12.37
2023-04-07T20:46:51.653Z,9.70
2023-04-07T20:49:18.528Z,12.10
2023-04-07T20:51:44.982Z,13.03
2023-04-07T20:54:11.404Z,14.93
2023-04-07T20:56:37.915Z,13.90
2023-04-07T20:59:04.323Z,11.00
2023-04-07T21:01:30.865Z,15.73
2023-04-07T21:03:57.540Z,18.03
2023-04-07T21:06:24.041Z,19.60
2023-04-07T21:08:50.552Z,18.03
2023-04-07T21:11:17.119Z,17.37
2023-04-07T21:13:43.675Z,14.87
2023-04-07T21:16:10.786Z,13.70
2023-04-07T21:18:37.241Z,12.37
2023-04-07T21:21:04.305Z,12.83
2023-04-07T21:23:31.820Z,11.77
2023-04-07T21:26:02.750Z,14.27
2023-04-07T21:28:29.254Z,16.43
2023-04-07T21:30:56.621Z,14.27
2023-04-07T21:33:23.206Z,16.27
2023-04-07T21:35:51.147Z,16.30
2023-04-07T21:38:18.011Z,16.27
2023-04-07T21:40:44.470Z,12.40
2023-04-07T21:43:12.206Z,12.90
2023-04-07T21:45:39.057Z,12.87
2023-04-07T21:48:05.749Z,12.27
2023-04-07T21:50:32.225Z,9.90
2023-04-07T21:52:58.702Z,10.67
2023-04-07T21:55:25.195Z,11.30
2023-04-07T21:57:51.915Z,10.40
2023-04-07T22:00:18.569Z,12.77
2023-04-07T22:02:45.604Z,13.87
2023-04-07T22:05:12.379Z,10.00
2023-04-07T22:07:38.920Z,10.13
2023-04-07T22:10:06.029Z,9.80
2023-04-07T22:12:32.479Z,10.33
2023-04-07T22:14:58.961Z,10.53
2023-04-07T22:17:25.678Z,9.20
2023-04-07T22:19:52.200Z,13.10
2023-04-07T22:22:18.772Z,14.87
2023-04-07T22:24:45.316Z,17.67
2023-04-07T22:27:11.808Z,18.43
2023-04-07T22:29:38.263Z,16.87
2023-04-07T22:32:04.860Z,14.57
2023-04-07T22:34:31.394Z,15.70
2023-04-07T22:36:57.875Z,15.80
2023-04-07T22:39:24.386Z,14.60
2023-04-07T22:41:50.821Z,15.93
2023-04-07T22:44:17.322Z,15.80
2023-04-07T22:46:43.824Z,15.80
2023-04-07T22:49:10.340Z,16.57
2023-04-07T22:51:36.856Z,14.50
2023-04-07T22:54:03.331Z,17.90
2023-04-07T22:56:29.765Z,16.07
2023-04-07T22:59:04.966Z,16.47
2023-04-07T23:01:32.088Z,15.67
2023-04-07T23:03:58.907Z,13.87
2023-04-07T23:06:26.271Z,15.27
2023-04-07T23:08:52.715Z,16.73
2023-04-07T23:11:20.033Z,15.80
2023-04-07T23:13:47.404Z,13.93
2023-04-07T23:16:14.515Z,14.77
2023-04-07T23:18:41.610Z,12.63
2023-04-07T23:21:08.705Z,14.60
2023-04-07T23:23:35.874Z,11.77
2023-04-07T23:26:02.485Z,14.73
2023-04-07T23:28:28.987Z,13.73
2023-04-07T23:30:55.532Z,13.13
2023-04-07T23:33:23.574Z,14.33
2023-04-07T23:35:50.523Z,18.47
2023-04-07T23:38:17.140Z,17.60
2023-04-07T23:40:43.757Z,17.43
2023-04-07T23:43:10.710Z,19.77
2023-04-07T23:45:37.259Z,19.00
2023-04-07T23:48:03.785Z,20.77
2023-04-07T23:50:30.902Z,18.80
2023-04-07T23:52:57.374Z,18.77
2023-04-07T23:55:23.782Z,17.97
2023-04-07T23:57:50.587Z,18.03
